sensor_id;sensor_type;location;lat;lon;timestamp;pressure;altitude;pressure_sealevel;temperature;humidity
77871;BME280;67067;46.850;7.578;2024-02-28T00:00:43;95020.88;;;5.84;47.69
77871;BME280;67067;46.850;7.578;2024-02-28T00:01:51;95019.75;;;5.92;47.20
77871;BME280;67067;46.850;7.578;2024-02-28T00:02:53;95026.59;;;5.93;47.50
77871;BME280;67067;46.850;7.578;2024-02-28T00:03:55;95029.78;;;5.95;47.31
77871;BME280;67067;46.850;7.578;2024-02-28T00:05:00;95026.38;;;5.94;47.49
77871;BME280;67067;46.850;7.578;2024-02-28T00:06:03;95023.97;;;5.93;47.54
77871;BME280;67067;46.850;7.578;2024-02-28T00:07:04;95026.03;;;5.91;47.66
77871;BME280;67067;46.850;7.578;2024-02-28T00:08:06;95030.69;;;5.77;47.53
77871;BME280;67067;46.850;7.578;2024-02-28T00:09:11;95036.19;;;5.87;47.47
77871;BME280;67067;46.850;7.578;2024-02-28T00:10:13;95037.69;;;5.83;47.48
77871;BME280;67067;46.850;7.578;2024-02-28T00:11:15;95035.38;;;5.86;47.52
77871;BME280;67067;46.850;7.578;2024-02-28T00:12:17;95032.63;;;5.81;47.85
77871;BME280;67067;46.850;7.578;2024-02-28T00:13:21;95024.22;;;5.91;47.71
77871;BME280;67067;46.850;7.578;2024-02-28T00:14:24;95039.16;;;5.91;47.90
77871;BME280;67067;46.850;7.578;2024-02-28T00:15:26;95035.84;;;5.83;47.68
77871;BME280;67067;46.850;7.578;2024-02-28T00:16:28;95032.09;;;5.91;47.68
77871;BME280;67067;46.850;7.578;2024-02-28T00:17:32;95034.34;;;5.87;47.91
77871;BME280;67067;46.850;7.578;2024-02-28T00:18:33;95036.28;;;5.80;47.70
77871;BME280;67067;46.850;7.578;2024-02-28T00:19:35;95040.41;;;5.88;47.70
77871;BME280;67067;46.850;7.578;2024-02-28T00:20:37;95046.09;;;5.73;47.71
77871;BME280;67067;46.850;7.578;2024-02-28T00:21:40;95041.91;;;5.84;47.42
77871;BME280;67067;46.850;7.578;2024-02-28T00:22:42;95043.25;;;5.86;47.39
77871;BME280;67067;46.850;7.578;2024-02-28T00:23:45;95038.13;;;5.92;47.68
77871;BME280;67067;46.850;7.578;2024-02-28T00:24:47;95037.88;;;5.81;47.70
77871;BME280;67067;46.850;7.578;2024-02-28T00:25:49;95038.38;;;5.90;47.60
77871;BME280;67067;46.850;7.578;2024-02-28T00:26:51;95039.84;;;5.86;47.35
77871;BME280;67067;46.850;7.578;2024-02-28T00:27:53;95038.59;;;5.88;47.20
77871;BME280;67067;46.850;7.578;2024-02-28T00:28:55;95037.44;;;5.84;47.30
77871;BME280;67067;46.850;7.578;2024-02-28T00:29:56;95036.75;;;5.77;47.71
77871;BME280;67067;46.850;7.578;2024-02-28T00:30:58;95044.28;;;5.85;47.63
77871;BME280;67067;46.850;7.578;2024-02-28T00:32:02;95041.44;;;5.87;47.15
77871;BME280;67067;46.850;7.578;2024-02-28T00:33:04;95040.41;;;5.88;47.50
77871;BME280;67067;46.850;7.578;2024-02-28T00:34:06;95038.25;;;5.85;47.56
77871;BME280;67067;46.850;7.578;2024-02-28T00:35:10;95047.94;;;5.84;47.26
77871;BME280;67067;46.850;7.578;2024-02-28T00:36:11;95039.56;;;5.76;47.46
77871;BME280;67067;46.850;7.578;2024-02-28T00:37:13;95032.19;;;5.84;47.41
77871;BME280;67067;46.850;7.578;2024-02-28T00:38:17;95039.41;;;5.89;47.26
77871;BME280;67067;46.850;7.578;2024-02-28T00:39:19;95036.31;;;5.92;47.50
77871;BME280;67067;46.850;7.578;2024-02-28T00:40:21;95037.69;;;5.95;47.31
77871;BME280;67067;46.850;7.578;2024-02-28T00:41:22;95037.44;;;5.84;47.30
77871;BME280;67067;46.850;7.578;2024-02-28T00:42:24;95036.06;;;5.94;47.52
77871;BME280;67067;46.850;7.578;2024-02-28T00:43:26;95039.28;;;5.96;47.22
77871;BME280;67067;46.850;7.578;2024-02-28T00:44:27;95037.31;;;5.79;47.26
77871;BME280;67067;46.850;7.578;2024-02-28T00:45:29;95043.97;;;5.94;47.36
77871;BME280;67067;46.850;7.578;2024-02-28T00:46:31;95047.16;;;5.84;47.56
77871;BME280;67067;46.850;7.578;2024-02-28T00:47:32;95047.16;;;5.96;47.26
77871;BME280;67067;46.850;7.578;2024-02-28T00:48:34;95043.94;;;5.82;47.23
77871;BME280;67067;46.850;7.578;2024-02-28T00:49:37;95047.03;;;5.91;47.42
77871;BME280;67067;46.850;7.578;2024-02-28T00:50:41;95050.03;;;5.94;47.28
77871;BME280;67067;46.850;7.578;2024-02-28T00:51:43;95045.09;;;5.86;47.25
77871;BME280;67067;46.850;7.578;2024-02-28T00:52:45;95047.72;;;5.98;47.24
77871;BME280;67067;46.850;7.578;2024-02-28T00:53:46;95041.78;;;5.91;47.29
77871;BME280;67067;46.850;7.578;2024-02-28T00:54:48;95044.44;;;6.02;47.26
77871;BME280;67067;46.850;7.578;2024-02-28T00:55:50;95038.47;;;6.07;47.16
77871;BME280;67067;46.850;7.578;2024-02-28T00:56:53;95050.38;;;6.10;47.23
77871;BME280;67067;46.850;7.578;2024-02-28T00:57:55;95042.47;;;5.98;47.24
77871;BME280;67067;46.850;7.578;2024-02-28T00:58:56;95046.97;;;6.09;47.05
77871;BME280;67067;46.850;7.578;2024-02-28T00:59:58;95041.31;;;5.94;47.09
77871;BME280;67067;46.850;7.578;2024-02-28T01:01:00;95045.59;;;6.07;47.17
77871;BME280;67067;46.850;7.578;2024-02-28T01:02:02;95046.97;;;6.09;46.74
77871;BME280;67067;46.850;7.578;2024-02-28T01:03:07;95050.59;;;6.08;47.03
77871;BME280;67067;46.850;7.578;2024-02-28T01:04:10;95047.97;;;6.08;46.80
77871;BME280;67067;46.850;7.578;2024-02-28T01:05:14;95045.78;;;6.05;46.68
77871;BME280;67067;46.850;7.578;2024-02-28T01:06:16;95044.97;;;5.93;46.89
77871;BME280;67067;46.850;7.578;2024-02-28T01:07:22;95054.81;;;5.97;47.03
77871;BME280;67067;46.850;7.578;2024-02-28T01:08:25;95046.59;;;5.94;47.09
77871;BME280;67067;46.850;7.578;2024-02-28T01:09:26;95043.72;;;5.83;47.47
77871;BME280;67067;46.850;7.578;2024-02-28T01:10:29;95045.78;;;5.93;46.93
77871;BME280;67067;46.850;7.578;2024-02-28T01:11:30;95046.91;;;5.85;47.17
77871;BME280;67067;46.850;7.578;2024-02-28T01:12:35;95041.31;;;5.94;47.02
77871;BME280;67067;46.850;7.578;2024-02-28T01:13:37;95047.16;;;5.96;47.39
77871;BME280;67067;46.850;7.578;2024-02-28T01:14:41;95044.53;;;5.96;47.21
77871;BME280;67067;46.850;7.578;2024-02-28T01:15:43;95049.91;;;6.01;47.11
77871;BME280;67067;46.850;7.578;2024-02-28T01:16:44;95042.25;;;5.87;47.42
77871;BME280;67067;46.850;7.578;2024-02-28T01:17:46;95036.66;;;5.96;47.09
77871;BME280;67067;46.850;7.578;2024-02-28T01:18:48;95038.94;;;5.92;47.47
77871;BME280;67067;46.850;7.578;2024-02-28T01:19:50;95044.41;;;5.91;47.26
77871;BME280;67067;46.850;7.578;2024-02-28T01:20:51;95040.31;;;5.95;47.35
77871;BME280;67067;46.850;7.578;2024-02-28T01:21:57;95042.03;;;6.01;47.34
77871;BME280;67067;46.850;7.578;2024-02-28T01:22:59;95051.75;;;6.00;47.24
77871;BME280;67067;46.850;7.578;2024-02-28T01:24:01;95045.22;;;6.03;47.21
77871;BME280;67067;46.850;7.578;2024-02-28T01:25:03;95047.41;;;5.94;47.23
77871;BME280;67067;46.850;7.578;2024-02-28T01:26:04;95043.16;;;6.05;47.01
77871;BME280;67067;46.850;7.578;2024-02-28T01:27:07;95040.78;;;6.03;47.27
77871;BME280;67067;46.850;7.578;2024-02-28T01:28:09;95039.59;;;5.87;47.53
77871;BME280;67067;46.850;7.578;2024-02-28T01:29:15;95045.09;;;5.98;47.30
77871;BME280;67067;46.850;7.578;2024-02-28T01:30:17;95046.38;;;6.07;47.06
77871;BME280;67067;46.850;7.578;2024-02-28T01:31:18;95042.59;;;5.91;47.30
77871;BME280;67067;46.850;7.578;2024-02-28T01:32:20;95041.44;;;5.99;47.44
77871;BME280;67067;46.850;7.578;2024-02-28T01:33:22;95046.59;;;5.94;47.64
77871;BME280;67067;46.850;7.578;2024-02-28T01:34:23;95047.50;;;5.87;47.65
77871;BME280;67067;46.850;7.578;2024-02-28T01:35:25;95042.59;;;6.03;48.08
77871;BME280;67067;46.850;7.578;2024-02-28T01:36:30;95045.88;;;5.86;48.08
77871;BME280;67067;46.850;7.578;2024-02-28T01:37:32;95050.94;;;6.00;47.49
77871;BME280;67067;46.850;7.578;2024-02-28T01:38:33;95045.44;;;5.90;47.79
77871;BME280;67067;46.850;7.578;2024-02-28T01:39:35;95046.13;;;5.97;47.97
77871;BME280;67067;46.850;7.578;2024-02-28T01:40:37;95047.16;;;5.84;48.16
77871;BME280;67067;46.850;7.578;2024-02-28T01:41:38;95037.09;;;5.93;48.48
77871;BME280;67067;46.850;7.578;2024-02-28T01:42:40;95040.88;;;5.97;48.42
77871;BME280;67067;46.850;7.578;2024-02-28T01:43:42;95042.03;;;6.01;48.51
77871;BME280;67067;46.850;7.578;2024-02-28T01:44:46;95039.84;;;5.98;48.68
77871;BME280;67067;46.850;7.578;2024-02-28T01:45:50;95051.38;;;5.97;48.36
77871;BME280;67067;46.850;7.578;2024-02-28T01:46:54;95040.88;;;5.97;48.55
77871;BME280;67067;46.850;7.578;2024-02-28T01:47:58;95039.50;;;5.94;48.72
77871;BME280;67067;46.850;7.578;2024-02-28T01:49:00;95037.09;;;5.93;48.79
77871;BME280;67067;46.850;7.578;2024-02-28T01:50:02;95039.72;;;5.93;49.03
77871;BME280;67067;46.850;7.578;2024-02-28T01:51:05;95042.34;;;5.93;49.08
77871;BME280;67067;46.850;7.578;2024-02-28T01:52:07;95049.09;;;5.88;49.01
77871;BME280;67067;46.850;7.578;2024-02-28T01:53:10;95035.97;;;5.88;49.18
77871;BME280;67067;46.850;7.578;2024-02-28T01:54:13;95042.13;;;5.82;49.35
77871;BME280;67067;46.850;7.578;2024-02-28T01:55:15;95037.31;;;5.79;49.81
77871;BME280;67067;46.850;7.578;2024-02-28T01:56:19;95044.97;;;5.81;49.55
77871;BME280;67067;46.850;7.578;2024-02-28T01:57:21;95047.94;;;5.84;49.36
77871;BME280;67067;46.850;7.578;2024-02-28T01:58:24;95044.75;;;5.82;49.81
77871;BME280;67067;46.850;7.578;2024-02-28T01:59:25;95051.78;;;5.70;49.62
77871;BME280;67067;46.850;7.578;2024-02-28T02:12:34;95054.78;;;5.85;49.88
77871;BME280;67067;46.850;7.578;2024-02-28T02:13:47;95049.09;;;5.88;49.59
77871;BME280;67067;46.850;7.578;2024-02-28T02:14:52;95052.19;;;5.97;49.44
77871;BME280;67067;46.850;7.578;2024-02-28T02:15:53;95050.56;;;5.84;49.67
77871;BME280;67067;46.850;7.578;2024-02-28T02:16:55;95050.34;;;5.98;49.59
77871;BME280;67067;46.850;7.578;2024-02-28T02:17:57;95054.00;;;5.85;49.54
77871;BME280;67067;46.850;7.578;2024-02-28T02:18:59;95045.91;;;5.98;49.15
77871;BME280;67067;46.850;7.578;2024-02-28T02:20:01;95049.56;;;5.97;48.81
77871;BME280;67067;46.850;7.578;2024-02-28T02:21:04;95055.97;;;6.01;48.52
77871;BME280;67067;46.850;7.578;2024-02-28T02:22:08;95051.50;;;6.02;48.43
77871;BME280;67067;46.850;7.578;2024-02-28T02:23:12;95057.34;;;6.04;48.18
77871;BME280;67067;46.850;7.578;2024-02-28T02:24:14;95058.34;;;6.03;48.15
77871;BME280;67067;46.850;7.578;2024-02-28T02:25:16;95056.66;;;6.09;48.36
77871;BME280;67067;46.850;7.578;2024-02-28T02:26:17;95051.84;;;5.94;48.47
77871;BME280;67067;46.850;7.578;2024-02-28T02:27:19;95056.88;;;6.07;48.55
77871;BME280;67067;46.850;7.578;2024-02-28T02:28:21;95051.78;;;6.12;48.60
77871;BME280;67067;46.850;7.578;2024-02-28T02:29:26;95052.56;;;6.13;48.78
77871;BME280;67067;46.850;7.578;2024-02-28T02:30:29;95051.19;;;6.10;48.59
77871;BME280;67067;46.850;7.578;2024-02-28T02:31:31;95050.81;;;5.95;48.58
77871;BME280;67067;46.850;7.578;2024-02-28T02:32:33;95050.47;;;6.03;48.29
77871;BME280;67067;46.850;7.578;2024-02-28T02:33:38;95058.94;;;6.05;48.40
77871;BME280;67067;46.850;7.578;2024-02-28T02:34:39;95052.78;;;6.11;48.25
77871;BME280;67067;46.850;7.578;2024-02-28T02:35:41;95051.19;;;6.10;47.80
77871;BME280;67067;46.850;7.578;2024-02-28T02:36:43;95058.69;;;5.95;47.97
77871;BME280;67067;46.850;7.578;2024-02-28T02:37:45;95050.47;;;6.03;48.02
77871;BME280;67067;46.850;7.578;2024-02-28T02:38:50;95056.88;;;6.07;48.08
77871;BME280;67067;46.850;7.578;2024-02-28T02:39:52;95048.41;;;6.05;48.07
77871;BME280;67067;46.850;7.578;2024-02-28T02:40:57;95060.78;;;6.05;47.74
77871;BME280;67067;46.850;7.578;2024-02-28T02:41:59;95053.09;;;6.03;47.66
77871;BME280;67067;46.850;7.578;2024-02-28T02:43:01;95055.28;;;6.06;47.79
77871;BME280;67067;46.850;7.578;2024-02-28T02:44:02;95064.41;;;5.92;48.27
77871;BME280;67067;46.850;7.578;2024-02-28T02:45:04;95059.84;;;5.99;47.79
77871;BME280;67067;46.850;7.578;2024-02-28T02:46:06;95061.44;;;6.00;47.72
77871;BME280;67067;46.850;7.578;2024-02-28T02:47:08;95065.91;;;5.99;48.22
77871;BME280;67067;46.850;7.578;2024-02-28T02:48:10;95061.44;;;6.00;48.18
77871;BME280;67067;46.850;7.578;2024-02-28T02:49:12;95068.75;;;5.98;48.18
77871;BME280;67067;46.850;7.578;2024-02-28T02:50:16;95074.56;;;6.00;47.87
77871;BME280;67067;46.850;7.578;2024-02-28T02:51:20;95072.53;;;6.02;47.98
77871;BME280;67067;46.850;7.578;2024-02-28T02:52:22;95072.75;;;6.00;48.22
77871;BME280;67067;46.850;7.578;2024-02-28T02:53:24;95073.78;;;5.99;48.07
77871;BME280;67067;46.850;7.578;2024-02-28T02:54:26;95080.41;;;6.02;48.07
77871;BME280;67067;46.850;7.578;2024-02-28T02:55:27;95087.00;;;5.93;48.40
77871;BME280;67067;46.850;7.578;2024-02-28T02:56:29;95075.97;;;6.02;48.15
77871;BME280;67067;46.850;7.578;2024-02-28T02:57:33;95077.31;;;6.05;48.19
77871;BME280;67067;46.850;7.578;2024-02-28T02:58:35;95086.00;;;5.94;48.44
77871;BME280;67067;46.850;7.578;2024-02-28T02:59:36;95088.41;;;6.07;48.36
77871;BME280;67067;46.850;7.578;2024-02-28T03:00:38;95083.38;;;5.94;48.28
77871;BME280;67067;46.850;7.578;2024-02-28T03:01:40;95085.78;;;6.07;48.18
77871;BME280;67067;46.850;7.578;2024-02-28T03:02:41;95085.53;;;5.97;48.20
77871;BME280;67067;46.850;7.578;2024-02-28T03:03:43;95088.41;;;6.07;48.24
77871;BME280;67067;46.850;7.578;2024-02-28T03:04:45;95082.91;;;5.97;48.13
77871;BME280;67067;46.850;7.578;2024-02-28T03:05:46;95089.22;;;6.08;47.98
77871;BME280;67067;46.850;7.578;2024-02-28T03:06:48;95096.03;;;5.97;48.53
77871;BME280;67067;46.850;7.578;2024-02-28T03:07:50;95090.47;;;6.05;48.35
77871;BME280;67067;46.850;7.578;2024-02-28T03:08:52;95096.03;;;5.97;48.41
77871;BME280;67067;46.850;7.578;2024-02-28T03:09:53;95081.22;;;6.02;48.27
77871;BME280;67067;46.850;7.578;2024-02-28T03:10:55;95081.19;;;5.91;48.71
77871;BME280;67067;46.850;7.578;2024-02-28T03:11:57;95085.66;;;6.02;48.57
77871;BME280;67067;46.850;7.578;2024-02-28T03:12:58;95084.38;;;5.93;48.57
77871;BME280;67067;46.850;7.578;2024-02-28T03:14:02;95088.53;;;6.00;48.46
77871;BME280;67067;46.850;7.578;2024-02-28T03:15:06;95083.81;;;5.91;48.61
77871;BME280;67067;46.850;7.578;2024-02-28T03:16:10;95090.13;;;6.01;48.71
77871;BME280;67067;46.850;7.578;2024-02-28T03:17:12;95081.69;;;5.99;48.45
77871;BME280;67067;46.850;7.578;2024-02-28T03:18:14;95091.72;;;6.02;48.72
77871;BME280;67067;46.850;7.578;2024-02-28T03:19:16;95089.75;;;5.86;49.20
77871;BME280;67067;46.850;7.578;2024-02-28T03:20:18;95088.16;;;5.97;48.98
77871;BME280;67067;46.850;7.578;2024-02-28T03:21:19;95097.97;;;5.90;49.07
77871;BME280;67067;46.850;7.578;2024-02-28T03:22:22;95092.84;;;5.95;49.05
77871;BME280;67067;46.850;7.578;2024-02-28T03:23:23;95099.69;;;5.84;49.14
77871;BME280;67067;46.850;7.578;2024-02-28T03:24:25;95092.28;;;5.93;49.18
77871;BME280;67067;46.850;7.578;2024-02-28T03:25:27;95098.66;;;5.85;49.29
77871;BME280;67067;46.850;7.578;2024-02-28T03:26:29;95099.38;;;5.92;49.49
77871;BME280;67067;46.850;7.578;2024-02-28T03:27:31;95106.88;;;5.88;49.43
77871;BME280;67067;46.850;7.578;2024-02-28T03:28:33;95104.94;;;5.96;49.06
77871;BME280;67067;46.850;7.578;2024-02-28T03:29:34;95106.88;;;5.88;49.49
77871;BME280;67067;46.850;7.578;2024-02-28T03:30:36;95102.00;;;5.92;49.44
77871;BME280;67067;46.850;7.578;2024-02-28T03:31:38;95106.78;;;5.95;49.15
77871;BME280;67067;46.850;7.578;2024-02-28T03:32:40;95110.66;;;5.93;49.51
77871;BME280;67067;46.850;7.578;2024-02-28T03:33:42;95116.09;;;5.79;49.47
77871;BME280;67067;46.850;7.578;2024-02-28T03:34:44;95111.56;;;5.86;50.06
77871;BME280;67067;46.850;7.578;2024-02-28T03:35:46;95113.59;;;5.84;49.71
77871;BME280;67067;46.850;7.578;2024-02-28T03:36:47;95113.22;;;5.69;49.92
77871;BME280;67067;46.850;7.578;2024-02-28T03:37:49;95108.22;;;5.79;50.09
77871;BME280;67067;46.850;7.578;2024-02-28T03:38:51;95106.50;;;5.73;50.01
77871;BME280;67067;46.850;7.578;2024-02-28T03:39:52;95121.22;;;5.74;50.09
77871;BME280;67067;46.850;7.578;2024-02-28T03:40:55;95120.06;;;5.70;50.41
77871;BME280;67067;46.850;7.578;2024-02-28T03:41:56;95119.22;;;5.57;50.52
77871;BME280;67067;46.850;7.578;2024-02-28T03:42:58;95124.75;;;5.68;50.44
77871;BME280;67067;46.850;7.578;2024-02-28T03:44:01;95126.16;;;5.52;51.03
77871;BME280;67067;46.850;7.578;2024-02-28T03:45:03;95122.44;;;5.59;50.67
77871;BME280;67067;46.850;7.578;2024-02-28T03:46:10;95124.16;;;5.66;50.51
77871;BME280;67067;46.850;7.578;2024-02-28T03:47:14;95124.97;;;5.66;50.52
77871;BME280;67067;46.850;7.578;2024-02-28T03:48:16;95127.72;;;5.71;50.45
77871;BME280;67067;46.850;7.578;2024-02-28T03:49:18;95130.13;;;5.73;50.46
77871;BME280;67067;46.850;7.578;2024-02-28T03:50:20;95134.22;;;5.69;50.52
77871;BME280;67067;46.850;7.578;2024-02-28T03:51:22;95132.25;;;5.64;50.40
77871;BME280;67067;46.850;7.578;2024-02-28T03:52:24;95136.84;;;5.69;50.48
77871;BME280;67067;46.850;7.578;2024-02-28T03:53:25;95133.59;;;5.55;50.80
77871;BME280;67067;46.850;7.578;2024-02-28T03:54:27;95139.56;;;5.62;50.79
77871;BME280;67067;46.850;7.578;2024-02-28T03:55:29;95144.16;;;5.48;50.97
77871;BME280;67067;46.850;7.578;2024-02-28T03:56:31;95147.09;;;5.58;50.91
77871;BME280;67067;46.850;7.578;2024-02-28T03:57:33;95136.66;;;5.52;51.20
77871;BME280;67067;46.850;7.578;2024-02-28T03:58:35;95144.59;;;5.45;50.80
77871;BME280;67067;46.850;7.578;2024-02-28T03:59:37;95139.66;;;5.55;50.83
77871;BME280;67067;46.850;7.578;2024-02-28T04:00:38;95149.09;;;5.38;51.21
77871;BME280;67067;46.850;7.578;2024-02-28T04:01:40;95149.00;;;5.51;50.93
77871;BME280;67067;46.850;7.578;2024-02-28T04:02:42;95143.88;;;5.56;50.91
77871;BME280;67067;46.850;7.578;2024-02-28T04:03:47;95147.75;;;5.54;51.19
77871;BME280;67067;46.850;7.578;2024-02-28T04:04:51;95154.34;;;5.38;51.36
77871;BME280;67067;46.850;7.578;2024-02-28T04:05:53;95146.72;;;5.36;51.30
77871;BME280;67067;46.850;7.578;2024-02-28T04:06:54;95148.84;;;5.46;51.05
77871;BME280;67067;46.850;7.578;2024-02-28T04:08:01;95148.84;;;5.46;51.36
77871;BME280;67067;46.850;7.578;2024-02-28T04:09:03;95148.03;;;5.45;51.10
77871;BME280;67067;46.850;7.578;2024-02-28T04:10:08;95143.78;;;5.44;50.91
77871;BME280;67067;46.850;7.578;2024-02-28T04:11:14;95150.28;;;5.42;51.20
77871;BME280;67067;46.850;7.578;2024-02-28T04:12:16;95142.06;;;5.38;51.63
77871;BME280;67067;46.850;7.578;2024-02-28T04:13:18;95143.22;;;5.42;51.49
77871;BME280;67067;46.850;7.578;2024-02-28T04:14:22;95145.63;;;5.44;51.33
77871;BME280;67067;46.850;7.578;2024-02-28T04:15:24;95155.97;;;5.20;51.90
77871;BME280;67067;46.850;7.578;2024-02-28T04:16:27;95146.34;;;5.33;51.68
77871;BME280;67067;46.850;7.578;2024-02-28T04:17:29;95148.31;;;5.37;51.66
77871;BME280;67067;46.850;7.578;2024-02-28T04:18:31;95145.84;;;5.42;51.56
77871;BME280;67067;46.850;7.578;2024-02-28T04:19:34;95154.72;;;5.41;51.33
77871;BME280;67067;46.850;7.578;2024-02-28T04:20:39;95156.97;;;5.38;51.55
77871;BME280;67067;46.850;7.578;2024-02-28T04:21:41;95163.25;;;5.37;51.45
77871;BME280;67067;46.850;7.578;2024-02-28T04:22:42;95153.56;;;5.37;51.58
77871;BME280;67067;46.850;7.578;2024-02-28T04:23:44;95161.75;;;5.29;51.77
77871;BME280;67067;46.850;7.578;2024-02-28T04:24:46;95157.41;;;5.35;51.42
77871;BME280;67067;46.850;7.578;2024-02-28T04:25:48;95157.28;;;5.29;51.42
77871;BME280;67067;46.850;7.578;2024-02-28T04:26:49;95159.03;;;5.36;51.50
77871;BME280;67067;46.850;7.578;2024-02-28T04:27:54;95158.38;;;5.40;51.16
77871;BME280;67067;46.850;7.578;2024-02-28T04:28:57;95159.91;;;5.48;50.90
77871;BME280;67067;46.850;7.578;2024-02-28T04:30:00;95161.16;;;5.45;51.21
77871;BME280;67067;46.850;7.578;2024-02-28T04:31:02;95161.78;;;5.41;51.17
77871;BME280;67067;46.850;7.578;2024-02-28T04:32:04;95161.38;;;5.44;51.27
77871;BME280;67067;46.850;7.578;2024-02-28T04:33:06;95161.97;;;5.46;51.08
77871;BME280;67067;46.850;7.578;2024-02-28T04:34:08;95163.06;;;5.38;51.34
77871;BME280;67067;46.850;7.578;2024-02-28T04:35:10;95174.91;;;5.41;51.06
77871;BME280;67067;46.850;7.578;2024-02-28T04:36:11;95170.97;;;5.32;50.95
77871;BME280;67067;46.850;7.578;2024-02-28T04:37:13;95169.25;;;5.44;51.00
77871;BME280;67067;46.850;7.578;2024-02-28T04:38:17;95163.31;;;5.49;51.01
77871;BME280;67067;46.850;7.578;2024-02-28T04:39:21;95179.38;;;5.40;50.93
77871;BME280;67067;46.850;7.578;2024-02-28T04:40:25;95170.41;;;5.48;51.04
77871;BME280;67067;46.850;7.578;2024-02-28T04:41:28;95174.22;;;5.52;50.67
77871;BME280;67067;46.850;7.578;2024-02-28T04:42:29;95174.00;;;5.54;50.91
77871;BME280;67067;46.850;7.578;2024-02-28T04:43:31;95172.47;;;5.46;51.10
77871;BME280;67067;46.850;7.578;2024-02-28T04:44:33;95173.59;;;5.32;51.15
77871;BME280;67067;46.850;7.578;2024-02-28T04:45:35;95176.09;;;5.45;50.65
77871;BME280;67067;46.850;7.578;2024-02-28T04:46:40;95168.56;;;5.49;50.70
77871;BME280;67067;46.850;7.578;2024-02-28T04:47:41;95172.47;;;5.46;50.98
77871;BME280;67067;46.850;7.578;2024-02-28T04:48:45;95168.41;;;5.50;50.48
77871;BME280;67067;46.850;7.578;2024-02-28T04:49:47;95172.16;;;5.36;50.65
77871;BME280;67067;46.850;7.578;2024-02-28T04:50:49;95179.44;;;5.34;50.97
77871;BME280;67067;46.850;7.578;2024-02-28T04:51:50;95183.09;;;5.33;51.07
77871;BME280;67067;46.850;7.578;2024-02-28T04:52:52;95180.78;;;5.43;50.81
77871;BME280;67067;46.850;7.578;2024-02-28T04:53:56;95181.63;;;5.37;50.81
77871;BME280;67067;46.850;7.578;2024-02-28T04:55:01;95179.38;;;5.40;51.05
77871;BME280;67067;46.850;7.578;2024-02-28T04:56:03;95188.34;;;5.33;50.99
77871;BME280;67067;46.850;7.578;2024-02-28T04:57:05;95187.31;;;5.34;51.04
77871;BME280;67067;46.850;7.578;2024-02-28T04:58:06;95188.34;;;5.14;51.65
77871;BME280;67067;46.850;7.578;2024-02-28T04:59:13;95185.00;;;5.25;51.28
77871;BME280;67067;46.850;7.578;2024-02-28T05:02:15;95199.38;;;4.79;52.09
77871;BME280;67067;46.850;7.578;2024-02-28T05:03:18;95197.97;;;4.76;52.60
77871;BME280;67067;46.850;7.578;2024-02-28T05:04:20;95199.19;;;4.74;52.18
77871;BME280;67067;46.850;7.578;2024-02-28T05:05:22;95200.22;;;4.72;52.74
77871;BME280;67067;46.850;7.578;2024-02-28T05:06:24;95197.78;;;4.78;52.62
77871;BME280;67067;46.850;7.578;2024-02-28T05:07:26;95196.34;;;5.00;51.97
77871;BME280;67067;46.850;7.578;2024-02-28T05:08:30;95191.59;;;5.09;51.80
77871;BME280;67067;46.850;7.578;2024-02-28T05:09:31;95192.69;;;5.01;51.82
77871;BME280;67067;46.850;7.578;2024-02-28T05:10:33;95200.81;;;5.19;51.70
77871;BME280;67067;46.850;7.578;2024-02-28T05:11:35;95198.25;;;5.12;51.36
77871;BME280;67067;46.850;7.578;2024-02-28T05:12:42;95196.59;;;5.18;51.45
77871;BME280;67067;46.850;7.578;2024-02-28T05:13:44;95194.56;;;5.20;51.12
77871;BME280;67067;46.850;7.578;2024-02-28T05:14:45;95194.31;;;5.03;51.81
77871;BME280;67067;46.850;7.578;2024-02-28T05:15:48;95202.28;;;5.14;51.36
77871;BME280;67067;46.850;7.578;2024-02-28T05:16:49;95207.13;;;5.11;51.13
77871;BME280;67067;46.850;7.578;2024-02-28T05:17:53;95208.59;;;5.25;50.94
77871;BME280;67067;46.850;7.578;2024-02-28T05:18:55;95206.72;;;5.33;50.81
77871;BME280;67067;46.850;7.578;2024-02-28T05:19:57;95215.59;;;5.32;51.03
77871;BME280;67067;46.850;7.578;2024-02-28T05:21:00;95213.34;;;5.35;50.82
77871;BME280;67067;46.850;7.578;2024-02-28T05:22:02;95217.78;;;5.35;50.89
77871;BME280;67067;46.850;7.578;2024-02-28T05:23:04;95215.16;;;5.35;50.80
77871;BME280;67067;46.850;7.578;2024-02-28T05:24:08;95214.59;;;5.33;50.96
77871;BME280;67067;46.850;7.578;2024-02-28T05:25:10;95210.28;;;5.38;50.71
77871;BME280;67067;46.850;7.578;2024-02-28T05:26:12;95210.50;;;5.37;50.51
77871;BME280;67067;46.850;7.578;2024-02-28T05:27:16;95218.91;;;5.45;50.40
77871;BME280;67067;46.850;7.578;2024-02-28T05:28:18;95211.41;;;5.49;50.60
77871;BME280;67067;46.850;7.578;2024-02-28T05:29:20;95220.22;;;5.36;50.60
77871;BME280;67067;46.850;7.578;2024-02-28T05:30:24;95218.69;;;5.47;50.74
77871;BME280;67067;46.850;7.578;2024-02-28T05:31:27;95215.84;;;5.49;50.49
77871;BME280;67067;46.850;7.578;2024-02-28T05:32:29;95217.25;;;5.51;50.50
77871;BME280;67067;46.850;7.578;2024-02-28T05:33:31;95219.47;;;5.29;51.06
77871;BME280;67067;46.850;7.578;2024-02-28T05:34:35;95224.00;;;5.40;50.87
77871;BME280;67067;46.850;7.578;2024-02-28T05:35:36;95223.78;;;5.42;50.69
77871;BME280;67067;46.850;7.578;2024-02-28T05:36:40;95225.47;;;5.36;50.91
77871;BME280;67067;46.850;7.578;2024-02-28T05:37:44;95221.22;;;5.35;51.25
77871;BME280;67067;46.850;7.578;2024-02-28T05:38:47;95222.16;;;5.41;50.95
77871;BME280;67067;46.850;7.578;2024-02-28T05:39:48;95224.66;;;5.36;51.04
77871;BME280;67067;46.850;7.578;2024-02-28T05:40:50;95234.56;;;5.34;51.34
77871;BME280;67067;46.850;7.578;2024-02-28T05:41:52;95230.63;;;5.24;51.57
77871;BME280;67067;46.850;7.578;2024-02-28T05:42:54;95226.03;;;5.20;51.73
77871;BME280;67067;46.850;7.578;2024-02-28T05:43:55;95230.19;;;5.27;51.38
77871;BME280;67067;46.850;7.578;2024-02-28T05:44:57;95229.72;;;5.12;51.57
77871;BME280;67067;46.850;7.578;2024-02-28T05:45:59;95230.03;;;5.22;51.22
77871;BME280;67067;46.850;7.578;2024-02-28T05:47:03;95228.38;;;5.28;51.16
77871;BME280;67067;46.850;7.578;2024-02-28T05:48:05;95220.50;;;5.28;51.09
77871;BME280;67067;46.850;7.578;2024-02-28T05:49:07;95227.72;;;5.33;50.74